Time;durP1;ratioP1;P1;durP2;ratioP2;P2;SDS_P1;SDS_P2;PMS_P1;PMS_P2;Temp;Humidity;BMP_temperature;BMP_pressure;BME280_temperature;BME280_humidity;BME280_pressure;Samples;Min_cycle;Max_cycle;Signal;HPM_P1;HPM_P2
2022/06/29 00:01:16;;;;;;;1.80;1.40;;;27.10;51.20;;;;;;5015972;28;20123;-68
2022/06/29 00:03:44;;;;;;;1.30;1.20;;;27.10;51.20;;;;;;5013915;28;20514;-63
2022/06/29 00:06:11;;;;;;;2.17;1.10;;;27.00;51.20;;;;;;5013282;28;20030;-65
2022/06/29 00:08:36;;;;;;;1.70;1.38;;;27.00;51.20;;;;;;5013129;28;20560;-62
2022/06/29 00:11:03;;;;;;;1.42;1.13;;;27.00;51.30;;;;;;5015547;28;20128;-65
2022/06/29 00:13:29;;;;;;;1.55;1.20;;;27.00;51.30;;;;;;5015333;28;20044;-65
2022/06/29 00:15:54;;;;;;;1.40;1.20;;;27.00;51.30;;;;;;5014666;28;20446;-68
2022/06/29 00:18:20;;;;;;;1.33;1.20;;;27.00;51.30;;;;;;5014068;28;20049;-61
2022/06/29 00:20:46;;;;;;;1.55;1.20;;;27.00;51.30;;;;;;5015690;28;20038;-64
2022/06/29 00:23:11;;;;;;;1.60;1.30;;;27.00;51.30;;;;;;5012854;28;20026;-62
2022/06/29 00:25:37;;;;;;;1.23;1.10;;;27.00;51.40;;;;;;5015561;28;20021;-62
2022/06/29 00:28:03;;;;;;;1.40;1.20;;;26.90;51.30;;;;;;5014705;28;20034;-66
2022/06/29 00:30:29;;;;;;;1.30;1.10;;;26.90;51.30;;;;;;5015292;28;20044;-62
2022/06/29 00:32:54;;;;;;;1.67;1.33;;;26.90;51.30;;;;;;5014693;28;20514;-63
2022/06/29 00:35:20;;;;;;;1.48;1.13;;;26.90;51.40;;;;;;5014605;28;20033;-65
2022/06/29 00:37:46;;;;;;;1.48;1.15;;;26.90;51.40;;;;;;5013011;28;20029;-65
2022/06/29 00:40:12;;;;;;;1.50;1.33;;;26.90;51.40;;;;;;5013431;28;20045;-62
2022/06/29 00:42:38;;;;;;;1.25;1.15;;;26.90;51.40;;;;;;5013996;28;20462;-65
2022/06/29 00:45:04;;;;;;;1.35;1.20;;;26.90;51.40;;;;;;5016816;28;20083;-66
2022/06/29 00:47:29;;;;;;;1.27;1.13;;;26.90;51.50;;;;;;5014469;28;20346;-64
2022/06/29 00:49:56;;;;;;;1.10;1.00;;;26.90;51.50;;;;;;5015930;28;20105;-65
2022/06/29 00:52:26;;;;;;;1.50;1.20;;;26.90;51.50;;;;;;5012468;28;20148;-65
2022/06/29 00:55:05;;;;;;;1.30;1.10;;;26.90;51.60;;;;;;5015124;28;20154;-59
2022/06/29 00:57:31;;;;;;;1.25;1.15;;;26.90;51.60;;;;;;5014189;28;20057;-68
2022/06/29 01:00:00;;;;;;;1.33;1.10;;;26.80;51.50;;;;;;5013748;28;20040;-63
2022/06/29 01:02:29;;;;;;;1.27;1.08;;;26.80;51.50;;;;;;5012134;28;20129;-65
2022/06/29 01:04:55;;;;;;;1.10;1.00;;;26.80;51.50;;;;;;5013432;28;20406;-65
2022/06/29 01:07:27;;;;;;;1.20;1.10;;;26.80;51.50;;;;;;5022220;28;20820;-64
2022/06/29 01:09:53;;;;;;;1.50;1.20;;;26.80;51.50;;;;;;5014440;28;20103;-64
2022/06/29 01:12:19;;;;;;;1.40;1.10;;;26.80;51.50;;;;;;5014473;28;20081;-66
2022/06/29 01:14:46;;;;;;;1.10;1.00;;;26.80;51.50;;;;;;5013779;28;20040;-68
2022/06/29 01:17:13;;;;;;;1.30;1.10;;;26.80;51.50;;;;;;5010661;28;20021;-68
2022/06/29 01:19:42;;;;;;;1.20;1.10;;;26.80;51.60;;;;;;5014342;28;20037;-62
2022/06/29 01:22:12;;;;;;;1.55;1.20;;;26.70;51.50;;;;;;5011160;28;20061;-65
2022/06/29 01:24:39;;;;;;;1.20;1.10;;;26.70;51.50;;;;;;5013150;28;20107;-65
2022/06/29 01:27:04;;;;;;;1.30;1.10;;;26.80;51.60;;;;;;5012879;28;20125;-68
2022/06/29 01:29:30;;;;;;;1.55;1.10;;;26.70;51.60;;;;;;5014014;28;20139;-64
2022/06/29 01:31:57;;;;;;;1.10;1.00;;;26.70;51.60;;;;;;5010602;28;20381;-68
2022/06/29 01:34:24;;;;;;;1.20;1.10;;;26.70;51.60;;;;;;5015090;28;20136;-65
2022/06/29 01:36:50;;;;;;;1.15;1.05;;;26.70;51.70;;;;;;5010090;28;20060;-66
2022/06/29 01:39:16;;;;;;;1.13;1.00;;;26.70;51.70;;;;;;5009905;28;20041;-64
2022/06/29 01:41:41;;;;;;;1.10;1.00;;;26.70;51.70;;;;;;5010283;28;20033;-64
2022/06/29 01:44:07;;;;;;;1.00;1.00;;;26.70;51.70;;;;;;5013539;28;20405;-66
2022/06/29 01:46:33;;;;;;;1.30;1.10;;;26.70;51.70;;;;;;5013159;28;20839;-62
2022/06/29 01:48:58;;;;;;;1.10;1.00;;;26.70;51.70;;;;;;5012595;28;20037;-68
2022/06/29 01:51:24;;;;;;;1.42;1.00;;;26.60;51.70;;;;;;5010408;28;20037;-65
2022/06/29 01:53:49;;;;;;;1.25;1.13;;;26.70;51.70;;;;;;5011595;28;20037;-68
2022/06/29 01:56:15;;;;;;;1.00;0.90;;;26.60;51.70;;;;;;5011749;28;20052;-64
2022/06/29 01:58:41;;;;;;;1.10;1.00;;;26.70;51.70;;;;;;5012326;28;20036;-64
2022/06/29 02:01:06;;;;;;;1.33;1.10;;;26.60;51.70;;;;;;5011695;28;20425;-61
2022/06/29 02:03:32;;;;;;;1.20;1.02;;;26.60;51.70;;;;;;5012110;28;20033;-62
2022/06/29 02:05:58;;;;;;;1.00;0.90;;;26.60;51.70;;;;;;5013260;28;20041;-63
2022/06/29 02:08:23;;;;;;;1.20;1.00;;;26.60;51.80;;;;;;5010145;28;20529;-66
2022/06/29 02:10:49;;;;;;;1.20;1.10;;;26.60;51.70;;;;;;5011818;28;20402;-69
2022/06/29 02:13:15;;;;;;;1.10;1.00;;;26.60;51.80;;;;;;5014010;28;20025;-65
2022/06/29 02:15:40;;;;;;;1.30;1.10;;;26.60;51.80;;;;;;5014263;28;20040;-65
2022/06/29 02:18:06;;;;;;;1.10;1.00;;;26.60;51.80;;;;;;5011387;28;20457;-66
2022/06/29 02:20:32;;;;;;;1.52;1.30;;;26.60;51.80;;;;;;5011403;28;21389;-61
2022/06/29 02:22:57;;;;;;;1.27;1.13;;;26.50;51.80;;;;;;5009328;28;20029;-64
2022/06/29 02:25:23;;;;;;;1.30;1.10;;;26.50;51.80;;;;;;5010911;28;20048;-65
2022/06/29 02:27:48;;;;;;;1.00;0.90;;;26.50;51.80;;;;;;5011999;28;20103;-64
2022/06/29 02:30:16;;;;;;;1.42;1.20;;;26.50;51.80;;;;;;5009926;28;20460;-61
2022/06/29 02:35:28;;;;;;;1.52;1.10;;;26.50;51.80;;;;;;5012471;28;20068;-62
2022/06/29 02:37:55;;;;;;;1.20;1.00;;;26.50;51.80;;;;;;5011213;28;20037;-68
2022/06/29 02:40:21;;;;;;;1.20;1.10;;;26.50;51.80;;;;;;5012337;28;20122;-65
2022/06/29 02:42:46;;;;;;;1.35;1.10;;;26.50;52.40;;;;;;5012325;28;20037;-67
2022/06/29 02:45:12;;;;;;;1.27;1.17;;;26.50;51.90;;;;;;5014238;28;20093;-63
2022/06/29 02:47:38;;;;;;;1.23;1.10;;;26.50;51.90;;;;;;5010426;28;20076;-63
2022/06/29 02:50:04;;;;;;;1.10;1.00;;;26.50;52.40;;;;;;5011859;28;20025;-65
2022/06/29 02:52:30;;;;;;;1.27;1.10;;;26.50;51.90;;;;;;5010860;28;20037;-62
2022/06/29 02:54:55;;;;;;;1.30;1.00;;;26.50;51.90;;;;;;5013706;28;20057;-65
2022/06/29 02:57:21;;;;;;;0.90;0.90;;;26.50;52.00;;;;;;5011450;28;20059;-64
2022/06/29 02:59:47;;;;;;;1.20;1.10;;;26.50;52.00;;;;;;5012252;28;20021;-64
2022/06/29 03:02:12;;;;;;;1.08;1.00;;;26.40;51.90;;;;;;5008188;28;20072;-62
2022/06/29 03:04:38;;;;;;;1.10;1.00;;;26.40;51.90;;;;;;5013325;28;20456;-61
2022/06/29 03:07:04;;;;;;;1.33;1.20;;;26.40;51.90;;;;;;5006866;28;20029;-68
2022/06/29 03:09:29;;;;;;;1.33;1.02;;;26.40;51.90;;;;;;5008878;28;20469;-64
2022/06/29 03:11:55;;;;;;;1.15;1.00;;;26.40;52.00;;;;;;5008135;28;20039;-67
2022/06/29 03:14:21;;;;;;;1.10;1.00;;;26.40;52.00;;;;;;5011728;28;20140;-62
2022/06/29 03:16:47;;;;;;;1.20;1.00;;;26.40;52.00;;;;;;5009335;28;20100;-62
2022/06/29 03:19:12;;;;;;;1.20;1.10;;;26.40;52.00;;;;;;5011397;28;21076;-66
2022/06/29 03:21:38;;;;;;;1.23;1.13;;;26.40;52.00;;;;;;5008100;28;20423;-67
2022/06/29 03:24:04;;;;;;;1.02;0.95;;;26.40;52.00;;;;;;5011595;28;20656;-66
2022/06/29 03:26:32;;;;;;;1.20;1.10;;;26.40;52.00;;;;;;5010033;28;20033;-63
2022/06/29 03:28:58;;;;;;;1.10;1.00;;;26.40;52.00;;;;;;5014151;28;20030;-60
2022/06/29 03:31:23;;;;;;;1.58;1.25;;;26.40;52.00;;;;;;5014019;28;20030;-65
2022/06/29 03:33:49;;;;;;;1.80;1.10;;;26.40;52.00;;;;;;5012581;28;20110;-68
2022/06/29 03:36:15;;;;;;;1.10;1.00;;;26.40;52.10;;;;;;5006795;28;20036;-65
2022/06/29 03:38:41;;;;;;;1.00;0.90;;;26.40;52.10;;;;;;5005207;28;20030;-64
2022/06/29 03:41:06;;;;;;;1.33;1.13;;;26.30;52.00;;;;;;5008803;28;20076;-64
2022/06/29 03:43:32;;;;;;;1.83;1.40;;;26.30;52.10;;;;;;5027497;28;20038;-61
2022/06/29 03:45:57;;;;;;;3.17;1.60;;;26.40;52.40;;;;;;5010841;28;20025;-61
2022/06/29 03:48:23;;;;;;;3.15;1.50;;;26.30;52.50;;;;;;5011719;28;20047;-67
2022/06/29 03:50:49;;;;;;;4.05;1.67;;;26.30;52.50;;;;;;5011045;28;20133;-64
2022/06/29 03:53:15;;;;;;;4.05;1.40;;;26.30;52.60;;;;;;5010081;28;20101;-67
2022/06/29 03:55:41;;;;;;;4.78;1.50;;;26.30;52.60;;;;;;5014448;28;20038;-67
2022/06/29 03:58:07;;;;;;;4.05;1.50;;;26.30;52.60;;;;;;5011551;28;20029;-64
2022/06/29 04:00:33;;;;;;;4.53;2.03;;;26.30;52.60;;;;;;5009774;28;20464;-67
2022/06/29 04:02:58;;;;;;;5.93;1.48;;;26.30;52.50;;;;;;5009123;28;20068;-66
2022/06/29 04:05:24;;;;;;;5.35;1.73;;;26.30;52.50;;;;;;5007472;28;20501;-66
2022/06/29 04:07:50;;;;;;;3.90;1.60;;;26.30;52.60;;;;;;5009314;28;20142;-68
2022/06/29 04:10:15;;;;;;;3.63;1.60;;;26.30;52.50;;;;;;5008356;28;20025;-65
2022/06/29 04:12:41;;;;;;;5.53;1.80;;;26.20;52.50;;;;;;5012050;28;20083;-65
2022/06/29 04:15:07;;;;;;;2.60;1.33;;;26.20;52.60;;;;;;5010631;28;20040;-66
2022/06/29 04:17:33;;;;;;;6.70;2.38;;;26.20;52.70;;;;;;5008720;28;20034;-67
2022/06/29 04:19:58;;;;;;;5.57;1.58;;;26.20;52.80;;;;;;5010152;28;20044;-62
2022/06/29 04:22:24;;;;;;;2.35;1.60;;;26.20;52.80;;;;;;5006325;28;20473;-68
2022/06/29 04:24:50;;;;;;;4.20;1.52;;;26.20;53.00;;;;;;5012638;28;20061;-67
2022/06/29 04:27:17;;;;;;;3.45;1.70;;;26.20;53.00;;;;;;5008509;28;20095;-63
2022/06/29 04:29:42;;;;;;;2.95;1.50;;;26.20;53.10;;;;;;5012053;28;20068;-63
2022/06/29 04:32:10;;;;;;;3.92;1.40;;;26.20;53.10;;;;;;5012298;28;20072;-66
2022/06/29 04:34:36;;;;;;;2.45;1.42;;;26.20;53.10;;;;;;5013542;28;20021;-64
2022/06/29 04:37:01;;;;;;;4.28;1.50;;;26.20;53.20;;;;;;5012675;28;20025;-64
2022/06/29 04:39:27;;;;;;;2.00;1.35;;;26.20;53.20;;;;;;5011387;28;20120;-68
2022/06/29 04:41:53;;;;;;;3.42;1.50;;;26.20;53.30;;;;;;5012787;28;20466;-65
2022/06/29 04:44:19;;;;;;;3.03;1.58;;;26.20;53.30;;;;;;5013040;28;20029;-65
2022/06/29 04:46:45;;;;;;;3.55;1.60;;;26.10;53.20;;;;;;5012868;28;20036;-63
2022/06/29 04:49:11;;;;;;;2.80;1.60;;;26.20;53.30;;;;;;5009341;28;20030;-64
2022/06/29 04:51:37;;;;;;;2.90;1.45;;;26.10;53.30;;;;;;5012810;28;20045;-67
2022/06/29 04:54:03;;;;;;;2.65;1.65;;;26.10;53.40;;;;;;5009871;28;20512;-65
2022/06/29 04:56:31;;;;;;;2.92;1.58;;;26.10;53.50;;;;;;5012482;28;20084;-65
2022/06/29 04:58:58;;;;;;;2.15;1.40;;;26.10;53.50;;;;;;5014987;28;20037;-61
2022/06/29 05:01:25;;;;;;;2.67;1.48;;;26.10;53.60;;;;;;5013354;28;20048;-64
2022/06/29 05:03:51;;;;;;;2.08;1.30;;;26.10;53.70;;;;;;5010441;28;20663;-62
2022/06/29 05:06:17;;;;;;;1.98;1.40;;;26.10;53.70;;;;;;5011143;28;20136;-66
2022/06/29 05:08:42;;;;;;;4.03;1.63;;;26.10;53.80;;;;;;5009489;28;20104;-68
2022/06/29 05:11:08;;;;;;;3.85;1.73;;;26.10;54.00;;;;;;5015926;28;20036;-65
2022/06/29 05:13:34;;;;;;;3.10;1.50;;;26.10;54.00;;;;;;5015932;28;20136;-61
2022/06/29 05:15:59;;;;;;;2.72;1.50;;;26.10;54.10;;;;;;5015250;28;20037;-66
2022/06/29 05:18:26;;;;;;;2.78;1.60;;;26.10;54.20;;;;;;5013135;28;20037;-68
2022/06/29 05:20:51;;;;;;;2.10;1.58;;;26.10;54.20;;;;;;5011391;28;20065;-65
2022/06/29 05:23:18;;;;;;;1.83;1.30;;;26.10;54.40;;;;;;5012490;28;20182;-60
2022/06/29 05:25:44;;;;;;;3.85;1.50;;;26.10;54.50;;;;;;5015017;28;20034;-63
2022/06/29 05:28:11;;;;;;;2.72;1.60;;;26.00;54.60;;;;;;5011389;28;20030;-61
2022/06/29 05:30:37;;;;;;;2.38;1.58;;;26.00;54.60;;;;;;5010980;28;20368;-65
2022/06/29 05:33:03;;;;;;;2.78;1.60;;;26.00;54.70;;;;;;5011634;28;20039;-64
2022/06/29 05:35:33;;;;;;;2.08;1.70;;;26.00;54.70;;;;;;5013691;28;20025;-62
2022/06/29 05:37:59;;;;;;;2.25;1.60;;;26.00;54.80;;;;;;5014782;28;20485;-63
2022/06/29 05:40:24;;;;;;;3.05;1.67;;;26.00;54.80;;;;;;5011748;28;20132;-63
2022/06/29 05:42:51;;;;;;;2.55;1.60;;;26.00;54.90;;;;;;5014518;28;20124;-62
2022/06/29 05:45:16;;;;;;;2.30;1.80;;;26.00;55.10;;;;;;5014755;28;20041;-68
2022/06/29 05:47:42;;;;;;;3.22;1.98;;;26.00;55.00;;;;;;5013105;28;20057;-68
2022/06/29 05:50:10;;;;;;;2.28;1.58;;;25.90;55.00;;;;;;5012116;28;20079;-65
2022/06/29 05:52:36;;;;;;;2.17;1.73;;;25.90;55.00;;;;;;5010825;28;20021;-63
2022/06/29 05:55:03;;;;;;;2.03;1.70;;;25.90;55.00;;;;;;5010549;28;20026;-61
2022/06/29 05:57:28;;;;;;;2.20;1.70;;;25.90;55.00;;;;;;5012076;28;20433;-68
2022/06/29 05:59:54;;;;;;;2.30;1.80;;;25.90;55.00;;;;;;5011741;28;20037;-65
2022/06/29 06:02:19;;;;;;;2.50;1.80;;;25.90;55.00;;;;;;5011863;28;20053;-61
2022/06/29 06:04:45;;;;;;;2.20;1.63;;;25.90;54.90;;;;;;5013364;28;20037;-63
2022/06/29 06:07:11;;;;;;;2.85;1.98;;;26.00;55.00;;;;;;5010672;28;20022;-62
2022/06/29 06:09:36;;;;;;;2.50;1.98;;;25.90;55.00;;;;;;5006368;28;20037;-66
2022/06/29 06:12:02;;;;;;;3.13;2.10;;;25.90;55.00;;;;;;5014089;28;20246;-65
2022/06/29 06:14:28;;;;;;;2.85;2.20;;;25.90;55.10;;;;;;5013890;28;20021;-62
2022/06/29 06:16:53;;;;;;;2.60;2.00;;;25.90;55.20;;;;;;5013074;28;20130;-68
2022/06/29 06:19:19;;;;;;;2.60;2.10;;;25.80;55.30;;;;;;5010250;28;20048;-68
2022/06/29 06:21:44;;;;;;;2.63;2.00;;;25.90;55.50;;;;;;5009865;28;20037;-63
2022/06/29 06:24:10;;;;;;;2.65;2.30;;;25.80;55.40;;;;;;5012560;28;20033;-67
2022/06/29 06:26:36;;;;;;;2.78;2.20;;;25.80;55.40;;;;;;5011237;28;20061;-62
2022/06/29 06:29:02;;;;;;;2.50;2.00;;;25.80;55.50;;;;;;5012751;28;20331;-63
2022/06/29 06:31:27;;;;;;;3.35;1.83;;;25.80;55.50;;;;;;5007939;28;20040;-65
2022/06/29 06:33:53;;;;;;;2.90;2.00;;;25.80;55.50;;;;;;5012071;28;20053;-65
2022/06/29 06:36:19;;;;;;;2.95;2.10;;;25.80;55.60;;;;;;5008037;28;20056;-63
2022/06/29 06:38:45;;;;;;;3.92;2.53;;;25.80;55.60;;;;;;5013378;28;20021;-66
2022/06/29 06:41:22;;;;;;;2.70;2.00;;;25.80;55.60;;;;;;5005901;28;20021;-63
2022/06/29 06:43:48;;;;;;;2.63;2.20;;;25.80;55.70;;;;;;5014456;28;20030;-67
2022/06/29 06:46:14;;;;;;;3.10;2.08;;;25.80;55.70;;;;;;5011842;28;20037;-64
2022/06/29 06:48:39;;;;;;;2.65;2.00;;;25.80;55.70;;;;;;5012027;28;20340;-62
2022/06/29 06:51:05;;;;;;;2.95;2.13;;;25.80;55.70;;;;;;5008735;28;20036;-65
2022/06/29 06:53:31;;;;;;;2.50;2.00;;;25.70;55.70;;;;;;5010580;28;20030;-63
2022/06/29 06:55:57;;;;;;;3.92;1.98;;;25.70;55.60;;;;;;5010395;28;20327;-65
2022/06/29 06:58:22;;;;;;;3.10;2.00;;;25.70;55.70;;;;;;5011086;28;20829;-65
2022/06/29 07:00:48;;;;;;;3.47;2.00;;;25.70;55.60;;;;;;5011219;28;20447;-65
2022/06/29 07:03:14;;;;;;;2.67;1.98;;;25.70;55.60;;;;;;5007128;28;20036;-63
2022/06/29 07:05:39;;;;;;;2.85;1.80;;;25.70;55.60;;;;;;5005018;28;20037;-65
2022/06/29 07:08:05;;;;;;;3.80;1.92;;;25.70;55.60;;;;;;5008767;28;20056;-64
2022/06/29 07:10:31;;;;;;;2.88;2.10;;;25.70;55.50;;;;;;5006959;28;20037;-65
2022/06/29 07:12:56;;;;;;;3.00;2.05;;;25.70;55.60;;;;;;5006131;28;20476;-65
2022/06/29 07:15:22;;;;;;;2.67;2.00;;;25.70;55.80;;;;;;5014099;28;20363;-68
2022/06/29 07:17:48;;;;;;;2.78;1.92;;;25.80;55.50;;;;;;5010903;28;20040;-66
2022/06/29 07:20:13;;;;;;;2.42;1.80;;;25.80;55.30;;;;;;5012825;28;20158;-62
2022/06/29 07:22:39;;;;;;;2.33;1.77;;;25.90;55.30;;;;;;5010287;28;20044;-65
2022/06/29 07:25:05;;;;;;;2.60;1.48;;;25.90;55.10;;;;;;5012278;28;20052;-61
2022/06/29 07:27:31;;;;;;;2.35;1.77;;;25.90;55.00;;;;;;5010731;28;20052;-65
2022/06/29 07:29:56;;;;;;;2.33;1.80;;;25.90;54.90;;;;;;5013071;28;20134;-60
2022/06/29 07:32:22;;;;;;;2.78;1.60;;;25.90;54.90;;;;;;5010469;28;20100;-61
2022/06/29 07:34:47;;;;;;;1.73;1.33;;;26.00;54.80;;;;;;5013158;28;20458;-63
2022/06/29 07:37:13;;;;;;;1.95;1.50;;;26.00;54.80;;;;;;5009487;28;20120;-64
2022/06/29 07:39:39;;;;;;;1.90;1.48;;;26.00;54.80;;;;;;5012828;28;20140;-64
2022/06/29 07:42:05;;;;;;;2.10;1.30;;;26.00;54.80;;;;;;5021125;28;20033;-66
2022/06/29 07:44:30;;;;;;;1.90;1.50;;;26.00;54.80;;;;;;5011147;28;20041;-67
2022/06/29 07:46:56;;;;;;;2.38;1.60;;;26.00;54.80;;;;;;5009260;28;20488;-65
2022/06/29 07:49:23;;;;;;;2.20;1.58;;;26.10;54.70;;;;;;5010006;28;20047;-62
2022/06/29 07:51:48;;;;;;;2.45;1.80;;;26.10;54.50;;;;;;5009617;28;20470;-64
2022/06/29 07:54:14;;;;;;;2.85;1.70;;;26.10;54.40;;;;;;5012823;28;20036;-67
2022/06/29 07:56:40;;;;;;;2.95;1.77;;;26.20;54.40;;;;;;5009710;28;20188;-66
2022/06/29 07:59:06;;;;;;;1.75;1.40;;;26.20;54.20;;;;;;5009664;28;21540;-62
2022/06/29 08:01:31;;;;;;;2.30;1.70;;;26.20;54.10;;;;;;5006980;28;20556;-63
2022/06/29 08:03:57;;;;;;;2.60;1.77;;;26.20;54.00;;;;;;5011064;28;20048;-64
2022/06/29 08:06:24;;;;;;;2.00;1.60;;;26.30;54.00;;;;;;5011672;28;20528;-66
2022/06/29 08:08:50;;;;;;;2.05;1.55;;;26.30;53.90;;;;;;5012614;28;20108;-63
2022/06/29 08:11:16;;;;;;;2.47;1.63;;;26.30;53.80;;;;;;5010306;28;20063;-61
2022/06/29 08:13:41;;;;;;;2.80;1.80;;;26.40;53.90;;;;;;5014226;28;20033;-65
2022/06/29 08:16:08;;;;;;;2.50;1.80;;;26.30;53.70;;;;;;5014453;28;20567;-60
2022/06/29 08:18:34;;;;;;;2.00;1.50;;;26.40;53.70;;;;;;5011899;28;20448;-66
2022/06/29 08:21:02;;;;;;;2.08;1.30;;;26.40;53.70;;;;;;5008983;28;20063;-64
2022/06/29 08:23:28;;;;;;;2.28;1.52;;;26.40;53.70;;;;;;5015291;28;20445;-66
2022/06/29 08:25:53;;;;;;;2.17;1.60;;;26.40;53.70;;;;;;5016259;28;20057;-63
2022/06/29 08:28:19;;;;;;;2.20;1.70;;;26.50;53.60;;;;;;5014136;28;20055;-66
2022/06/29 08:30:44;;;;;;;1.83;1.50;;;26.50;53.60;;;;;;5012931;28;20482;-65
2022/06/29 08:33:10;;;;;;;2.42;1.88;;;26.50;53.60;;;;;;5014587;28;20035;-66
2022/06/29 08:35:36;;;;;;;2.60;1.60;;;26.50;53.50;;;;;;5014764;28;20017;-62
2022/06/29 08:38:02;;;;;;;2.40;1.90;;;26.50;53.40;;;;;;5005519;28;20034;-60
2022/06/29 08:40:45;;;;;;;2.25;1.70;;;26.50;53.40;;;;;;5013037;28;20029;-59
2022/06/29 08:43:12;;;;;;;1.70;1.40;;;26.60;53.50;;;;;;5010382;28;20044;-59
2022/06/29 08:45:43;;;;;;;2.00;1.50;;;26.60;53.50;;;;;;5012825;28;20025;-66
2022/06/29 08:48:10;;;;;;;1.95;1.60;;;26.60;53.50;;;;;;5011156;28;20503;-64
2022/06/29 08:50:40;;;;;;;2.00;1.42;;;26.70;53.60;;;;;;5009430;28;20025;-63
2022/06/29 08:53:08;;;;;;;1.77;1.55;;;26.70;53.70;;;;;;5014339;28;20048;-64
2022/06/29 08:55:41;;;;;;;1.95;1.60;;;26.70;53.70;;;;;;5010731;28;20033;-60
2022/06/29 08:58:09;;;;;;;2.05;1.63;;;26.80;53.70;;;;;;5014929;28;20035;-64
2022/06/29 09:00:38;;;;;;;1.90;1.52;;;26.80;53.70;;;;;;5016519;28;21392;-66
2022/06/29 09:03:04;;;;;;;;;;;26.80;53.60;;;;;;5016446;28;20121;-64
2022/06/29 09:05:30;;;;;;;1.60;1.45;;;26.80;53.50;;;;;;5015139;28;20076;-60
2022/06/29 09:07:56;;;;;;;2.15;1.50;;;26.80;53.40;;;;;;5003567;28;20061;-61
2022/06/29 09:10:23;;;;;;;2.17;1.65;;;26.90;53.50;;;;;;5011948;28;20025;-64
2022/06/29 09:12:52;;;;;;;1.95;1.50;;;26.90;53.50;;;;;;5010754;28;20025;-63
2022/06/29 09:15:32;;;;;;;2.30;1.67;;;26.90;53.40;;;;;;5003327;28;20044;-64
2022/06/29 09:18:00;;;;;;;2.20;1.50;;;27.00;53.30;;;;;;5007300;28;20124;-62
2022/06/29 09:20:37;;;;;;;1.80;1.40;;;27.00;53.30;;;;;;5012001;28;20074;-62
2022/06/29 09:23:03;;;;;;;1.80;1.58;;;27.00;53.30;;;;;;5011029;28;20430;-58
2022/06/29 09:25:31;;;;;;;2.22;1.60;;;27.10;53.80;;;;;;5015138;28;20108;-63
2022/06/29 09:27:57;;;;;;;1.90;1.50;;;27.10;53.20;;;;;;5012263;28;20465;-60
2022/06/29 09:30:29;;;;;;;1.85;1.50;;;27.10;53.10;;;;;;5009131;28;20148;-63
2022/06/29 09:33:04;;;;;;;1.50;1.30;;;27.10;53.10;;;;;;5007322;28;20511;-63
2022/06/29 09:35:30;;;;;;;1.80;1.40;;;27.10;53.10;;;;;;4992134;28;20378;-63
2022/06/29 09:38:25;;;;;;;2.03;1.40;;;27.20;53.10;;;;;;5010034;28;20034;-61
2022/06/29 09:41:19;;;;;;;2.33;1.63;;;27.20;53.10;;;;;;5009751;28;20041;-64
2022/06/29 09:43:46;;;;;;;1.80;1.40;;;27.20;52.90;;;;;;5010856;28;21291;-60
2022/06/29 09:46:16;;;;;;;1.60;1.40;;;27.20;52.90;;;;;;5014597;28;20045;-63
2022/06/29 09:48:43;;;;;;;1.92;1.52;;;27.20;52.80;;;;;;5011985;28;20368;-59
2022/06/29 09:54:02;;;;;;;2.03;1.40;;;27.30;52.80;;;;;;5011958;28;20045;-61
2022/06/29 09:56:30;;;;;;;1.50;1.30;;;27.30;52.80;;;;;;5013713;28;20025;-64
2022/06/29 09:59:01;;;;;;;1.88;1.48;;;27.30;52.70;;;;;;5009608;28;20135;-62
2022/06/29 10:04:13;;;;;;;2.17;1.50;;;27.30;53.00;;;;;;5010488;28;20106;-62
2022/06/29 10:06:39;;;;;;;1.73;1.25;;;27.30;52.40;;;;;;4989648;28;20057;-60
2022/06/29 10:09:05;;;;;;;2.40;1.50;;;27.30;52.30;;;;;;5012179;28;20133;-63
2022/06/29 10:14:28;;;;;;;1.83;1.40;;;27.40;52.20;;;;;;5012273;28;20092;-61
2022/06/29 10:17:25;;;;;;;1.60;1.30;;;27.40;52.20;;;;;;5011955;28;20042;-63
2022/06/29 10:20:09;;;;;;;1.52;1.20;;;27.40;52.10;;;;;;5000695;28;20075;-63
2022/06/29 10:22:35;;;;;;;1.50;1.33;;;27.40;52.00;;;;;;5007044;28;20446;-60
2022/06/29 10:25:05;;;;;;;1.42;1.23;;;27.40;52.00;;;;;;5010653;28;20033;-61
2022/06/29 10:27:31;;;;;;;1.40;1.20;;;27.40;51.90;;;;;;5010655;28;20033;-62
2022/06/29 10:30:18;;;;;;;2.00;1.50;;;27.40;51.90;;;;;;5013262;28;20029;-63
2022/06/29 10:32:43;;;;;;;1.50;1.30;;;27.40;51.90;;;;;;5005798;28;20490;-59
2022/06/29 10:35:09;;;;;;;1.50;1.30;;;27.50;51.90;;;;;;5012272;28;20033;-63
2022/06/29 10:37:53;;;;;;;1.70;1.27;;;27.50;51.80;;;;;;5011452;28;20542;-59
2022/06/29 10:40:22;;;;;;;1.95;1.38;;;27.50;51.80;;;;;;5013293;28;20079;-64
2022/06/29 10:45:47;;;;;;;1.63;1.20;;;27.50;52.00;;;;;;5006682;28;20413;-59
2022/06/29 10:48:14;;;;;;;2.28;1.40;;;27.50;52.00;;;;;;5011521;28;20021;-62
2022/06/29 10:50:45;;;;;;;2.00;1.40;;;27.50;52.00;;;;;;5012838;28;20033;-64
2022/06/29 10:53:13;;;;;;;1.92;1.40;;;27.60;52.60;;;;;;5009528;28;20022;-60
2022/06/29 10:56:00;;;;;;;1.90;1.42;;;27.50;52.00;;;;;;5010308;28;20433;-60
2022/06/29 10:58:26;;;;;;;2.05;1.35;;;27.60;52.00;;;;;;5010737;28;20079;-59
2022/06/29 11:00:53;;;;;;;1.65;1.40;;;27.60;52.00;;;;;;5012546;28;20439;-62
2022/06/29 11:03:26;;;;;;;1.40;1.20;;;27.60;52.00;;;;;;5010669;28;20437;-65
2022/06/29 11:16:58;;;;;;;1.60;1.13;;;27.70;52.00;;;;;;5012167;28;20036;-64
2022/06/29 11:19:30;;;;;;;1.40;1.20;;;27.70;52.50;;;;;;5010080;28;20378;-65
2022/06/29 11:22:09;;;;;;;1.42;1.13;;;27.70;51.90;;;;;;5005404;28;20041;-62
2022/06/29 11:24:50;;;;;;;;;;;27.70;51.80;;;;;;5007655;28;20021;-66
2022/06/29 11:27:35;;;;;;;1.88;1.40;;;27.70;51.80;;;;;;5008028;28;19916;-62
2022/06/29 11:30:03;;;;;;;1.63;1.40;;;27.70;51.80;;;;;;5009805;28;20044;-66
2022/06/29 11:32:40;;;;;;;1.85;1.30;;;27.70;51.70;;;;;;5009012;28;20068;-65
2022/06/29 11:35:07;;;;;;;1.73;1.38;;;27.70;51.70;;;;;;5006776;28;20451;-67
2022/06/29 11:37:33;;;;;;;1.58;1.30;;;27.80;51.80;;;;;;5006569;28;20649;-63
2022/06/29 11:39:58;;;;;;;1.90;1.38;;;27.80;51.80;;;;;;5004715;28;20038;-67
2022/06/29 11:45:18;;;;;;;1.63;1.30;;;27.80;51.70;;;;;;5010012;28;20040;-66
2022/06/29 11:47:54;;;;;;;1.13;1.00;;;27.80;51.70;;;;;;5008639;28;20060;-64
2022/06/29 11:50:21;;;;;;;1.50;1.20;;;27.80;51.70;;;;;;5011444;28;20516;-64
2022/06/29 11:52:50;;;;;;;3.38;1.40;;;27.90;51.70;;;;;;5007554;28;20064;-64
2022/06/29 11:55:35;;;;;;;1.77;1.38;;;27.80;51.50;;;;;;5010112;28;20075;-64
2022/06/29 11:58:00;;;;;;;1.50;1.25;;;27.90;51.60;;;;;;5008953;28;20473;-62
2022/06/29 12:00:27;;;;;;;1.40;1.10;;;27.90;51.60;;;;;;5010476;28;20042;-62
2022/06/29 12:03:00;;;;;;;1.55;1.25;;;27.90;51.60;;;;;;5009029;28;20474;-63
2022/06/29 12:05:26;;;;;;;1.30;1.10;;;27.90;51.80;;;;;;5008371;28;20120;-63
2022/06/29 12:07:51;;;;;;;1.58;1.33;;;27.90;52.00;;;;;;5009613;28;20040;-63
2022/06/29 12:10:17;;;;;;;1.65;1.30;;;27.90;52.00;;;;;;5007575;28;20038;-60
2022/06/29 12:12:42;;;;;;;1.92;1.30;;;27.90;51.90;;;;;;5008764;28;20123;-64
2022/06/29 12:15:09;;;;;;;1.52;1.20;;;28.00;51.90;;;;;;5008233;28;20044;-63
2022/06/29 12:17:36;;;;;;;1.42;1.20;;;28.00;51.90;;;;;;5009161;28;20036;-67
2022/06/29 12:20:03;;;;;;;1.42;1.20;;;28.00;51.90;;;;;;5010388;28;20402;-60
2022/06/29 12:22:29;;;;;;;1.40;1.23;;;28.00;51.90;;;;;;5008372;28;20045;-64
2022/06/29 12:24:55;;;;;;;2.05;1.40;;;28.00;52.00;;;;;;5010555;28;20051;-64
2022/06/29 12:27:20;;;;;;;1.70;1.20;;;28.00;52.00;;;;;;5006348;28;20029;-65
2022/06/29 12:29:46;;;;;;;1.60;1.27;;;28.00;52.10;;;;;;5009972;28;20026;-63
2022/06/29 12:32:11;;;;;;;1.30;1.17;;;28.10;52.20;;;;;;5009929;28;20073;-63
2022/06/29 12:34:37;;;;;;;1.70;1.38;;;28.10;52.40;;;;;;5007246;28;20026;-62
2022/06/29 12:37:03;;;;;;;1.70;1.15;;;28.10;52.20;;;;;;5002666;28;20037;-64
2022/06/29 12:39:30;;;;;;;1.70;1.40;;;28.10;52.10;;;;;;5009322;28;20036;-65
2022/06/29 12:41:55;;;;;;;1.50;1.30;;;28.10;52.00;;;;;;5006121;28;20398;-64
2022/06/29 12:44:22;;;;;;;1.20;1.10;;;28.10;52.00;;;;;;5004841;28;20033;-64
2022/06/29 12:46:47;;;;;;;1.27;1.05;;;28.10;52.00;;;;;;5010281;28;20034;-61
2022/06/29 12:49:13;;;;;;;2.10;1.30;;;28.10;52.30;;;;;;5011459;28;20052;-64
2022/06/29 12:51:38;;;;;;;1.98;1.30;;;28.10;52.30;;;;;;5010210;28;20719;-68
2022/06/29 12:54:04;;;;;;;1.73;1.30;;;28.10;52.30;;;;;;5015949;28;20037;-62
2022/06/29 12:56:30;;;;;;;2.15;1.30;;;28.20;52.50;;;;;;5015634;28;20029;-65
2022/06/29 12:58:55;;;;;;;1.40;1.20;;;28.10;52.40;;;;;;5013641;28;20083;-65
2022/06/29 13:01:21;;;;;;;1.27;1.15;;;28.20;52.40;;;;;;5014640;28;20152;-64
2022/06/29 13:03:47;;;;;;;1.27;1.13;;;28.10;52.40;;;;;;5010137;28;20493;-63
2022/06/29 13:06:12;;;;;;;1.50;1.20;;;28.10;52.50;;;;;;5005072;28;20544;-65
2022/06/29 13:08:38;;;;;;;1.20;1.00;;;28.10;52.50;;;;;;5006751;28;20029;-65
2022/06/29 13:11:04;;;;;;;1.60;1.20;;;28.10;52.70;;;;;;5006847;28;20532;-64
2022/06/29 13:13:30;;;;;;;1.20;1.00;;;28.10;53.00;;;;;;5002116;28;20034;-66
2022/06/29 13:15:56;;;;;;;1.40;1.20;;;28.10;53.10;;;;;;5007926;28;20026;-66